Time;durP1;ratioP1;P1;durP2;ratioP2;P2;SDS_P1;SDS_P2;PMS_P1;PMS_P2;Temp;Humidity;BMP_temperature;BMP_pressure;BME280_temperature;BME280_humidity;BME280_pressure;Samples;Min_cycle;Max_cycle;Signal;HPM_P1;HPM_P2
2023/06/10 00:04:39;;;;;;;0.17;0.17;;;;;;;23.05;90.52;101489.06;10445102;28;20128;-81
2023/06/10 00:09:40;;;;;;;0.10;0.10;;;;;;;23.02;91.29;101492.63;10451422;28;20059;-81
2023/06/10 00:14:42;;;;;;;0.20;0.10;;;;;;;22.67;91.60;101496.69;10445039;28;20053;-82
2023/06/10 00:19:46;;;;;;;0.90;0.75;;;;;;;22.55;93.05;101492.50;10434459;28;20052;-81
2023/06/10 00:24:48;;;;;;;0.28;0.17;;;;;;;22.63;93.26;101497.63;10450001;28;20033;-82
2023/06/10 00:29:50;;;;;;;0.28;0.10;;;;;;;22.70;92.79;101496.63;10461233;28;20134;-81
2023/06/10 00:34:51;;;;;;;0.65;0.35;;;;;;;22.62;92.83;101498.50;10443712;28;20049;-81
2023/06/10 00:39:53;;;;;;;0.30;0.30;;;;;;;22.30;94.46;101502.44;10446579;28;20055;-82
2023/06/10 00:44:55;;;;;;;0.20;0.20;;;;;;;21.89;98.37;101499.47;10443874;28;20499;-82
2023/06/10 00:49:57;;;;;;;0.20;0.13;;;;;;;21.60;100.00;101502.41;10428437;28;20377;-82
2023/06/10 00:54:59;;;;;;;0.32;0.30;;;;;;;21.82;98.22;101503.91;10429084;28;20484;-81
2023/06/10 01:00:01;;;;;;;0.32;0.30;;;;;;;21.52;100.00;101505.94;10458484;28;20048;-82
2023/06/10 01:05:03;;;;;;;1.65;0.57;;;;;;;21.38;100.00;101508.69;10427206;28;20044;-82
2023/06/10 01:10:28;;;;;;;0.70;0.28;;;;;;;21.55;100.00;101505.03;10447843;28;20064;-82
2023/06/10 01:15:31;;;;;;;0.55;0.32;;;;;;;21.38;100.00;101508.69;10434327;28;20408;-81
2023/06/10 01:20:33;;;;;;;0.85;0.43;;;;;;;21.26;100.00;101507.94;10438121;28;20131;-82
2023/06/10 01:25:44;;;;;;;0.50;0.38;;;;;;;21.46;100.00;101519.09;10450548;28;20051;-81
2023/06/10 01:31:02;;;;;;;0.10;0.08;;;;;;;21.60;100.00;101518.13;10467163;28;20106;-81
2023/06/10 01:36:05;;;;;;;0.10;0.10;;;;;;;21.17;100.00;101514.13;10437323;28;20480;-81
2023/06/10 01:41:12;;;;;;;0.45;0.35;;;;;;;21.39;100.00;101510.41;10436406;28;20470;-81
2023/06/10 01:46:15;;;;;;;1.02;0.43;;;;;;;21.12;100.00;101522.00;10465191;28;20045;-81
2023/06/10 01:51:17;;;;;;;0.40;0.25;;;;;;;20.80;100.00;101517.91;10458186;28;20080;-81
2023/06/10 01:56:20;;;;;;;0.52;0.52;;;;;;;21.07;100.00;101513.31;10465694;28;20045;-82
2023/06/10 02:01:22;;;;;;;0.32;0.13;;;;;;;20.92;100.00;101517.81;10448933;28;20140;-81
2023/06/10 02:06:23;;;;;;;1.75;0.65;;;;;;;20.61;100.00;101520.59;10460963;28;20073;-81
2023/06/10 02:11:26;;;;;;;0.32;0.30;;;;;;;21.02;100.00;101526.47;10456706;28;20124;-81
2023/06/10 02:16:28;;;;;;;0.55;0.38;;;;;;;21.17;100.00;101524.59;10448680;28;20443;-81
2023/06/10 02:21:30;;;;;;;0.77;0.35;;;;;;;20.63;100.00;101532.81;10431059;28;20500;-81
2023/06/10 02:26:31;;;;;;;0.20;0.10;;;;;;;20.76;100.00;101524.03;10432743;28;20052;-80
2023/06/10 02:31:35;;;;;;;0.80;0.40;;;;;;;20.41;100.00;101527.69;10460764;28;20103;-81
2023/06/10 02:36:38;;;;;;;0.95;0.40;;;;;;;20.65;100.00;101525.81;10448339;28;20107;-81
2023/06/10 02:41:41;;;;;;;0.47;0.40;;;;;;;20.55;100.00;101531.09;10458689;28;20052;-81
2023/06/10 02:46:44;;;;;;;0.77;0.28;;;;;;;20.61;100.00;101528.44;10432122;28;20144;-81
2023/06/10 02:51:47;;;;;;;0.20;0.20;;;;;;;20.71;100.00;101526.63;10448726;28;20057;-81
2023/06/10 02:56:52;;;;;;;0.30;0.10;;;;;;;20.49;100.00;101525.91;10435373;28;20043;-81
2023/06/10 03:01:59;;;;;;;0.10;0.10;;;;;;;20.37;100.00;101526.84;10407124;28;20052;-80
2023/06/10 03:07:03;;;;;;;0.77;0.65;;;;;;;20.29;100.00;101528.63;10435307;28;20053;-82
2023/06/10 03:12:08;;;;;;;0.52;0.38;;;;;;;20.41;100.00;101522.47;10470484;28;20049;-81
2023/06/10 03:17:15;;;;;;;0.30;0.20;;;;;;;20.27;100.00;101539.09;10452580;28;20519;-80
2023/06/10 03:22:18;;;;;;;0.55;0.40;;;;;;;20.37;100.00;101531.19;10454204;28;20861;-81
2023/06/10 03:27:42;;;;;;;0.10;0.10;;;;;;;20.48;100.00;101531.16;10426381;28;20145;-82
2023/06/10 03:32:44;;;;;;;0.65;0.20;;;;;;;20.22;100.00;101532.16;10428576;28;20606;-81
2023/06/10 03:37:49;;;;;;;0.63;0.43;;;;;;;19.99;100.00;101540.94;10446691;28;20114;-80
2023/06/10 03:42:51;;;;;;;0.10;0.10;;;;;;;20.16;100.00;101548.72;10440137;28;20443;-80
2023/06/10 03:47:53;;;;;;;0.10;0.00;;;;;;;20.04;100.00;101548.78;10429159;28;20099;-80
2023/06/10 03:52:59;;;;;;;0.20;0.20;;;;;;;19.99;100.00;101551.41;10447788;28;20232;-80
2023/06/10 03:58:02;;;;;;;0.52;0.20;;;;;;;20.34;100.00;101552.16;10429180;28;20053;-81
2023/06/10 04:03:03;;;;;;;0.15;0.15;;;;;;;20.33;100.00;101546.03;10449307;28;20049;-82
2023/06/10 04:08:11;;;;;;;0.28;0.20;;;;;;;20.10;100.00;101554.00;10428627;28;20403;-81
2023/06/10 04:13:14;;;;;;;0.22;0.10;;;;;;;20.58;100.00;101546.81;10413176;28;20053;-80
2023/06/10 04:18:23;;;;;;;1.08;0.75;;;;;;;20.69;100.00;101549.38;10448069;28;20053;-81
2023/06/10 04:23:30;;;;;;;0.05;0.05;;;;;;;20.70;100.00;101555.47;10452745;28;20044;-81
2023/06/10 04:28:32;;;;;;;0.32;0.32;;;;;;;21.33;100.00;101549.78;10435977;28;20068;-81
2023/06/10 04:33:34;;;;;;;0.10;0.10;;;;;;;21.16;100.00;101560.41;10450237;28;20243;-81
2023/06/10 04:38:37;;;;;;;0.20;0.20;;;;;;;20.87;100.00;101569.34;10435086;28;20045;-81
2023/06/10 04:43:40;;;;;;;0.35;0.35;;;;;;;21.03;100.00;101571.88;10456913;28;20059;-81
2023/06/10 04:48:42;;;;;;;0.55;0.32;;;;;;;21.40;100.00;101564.59;10460912;28;20107;-80
2023/06/10 04:53:44;;;;;;;1.33;0.50;;;;;;;21.12;100.00;101569.16;10435948;28;20044;-81
2023/06/10 04:58:46;;;;;;;1.35;0.57;;;;;;;21.29;100.00;101571.69;10453549;28;20041;-81
2023/06/10 05:03:48;;;;;;;0.20;0.20;;;;;;;21.11;100.00;101567.44;10451631;28;20056;-82
2023/06/10 05:08:49;;;;;;;0.82;0.47;;;;;;;21.37;100.00;101576.84;10452433;28;20089;-81
2023/06/10 05:13:51;;;;;;;0.43;0.15;;;;;;;21.46;100.00;101573.25;10451901;28;20053;-81
2023/06/10 05:18:53;;;;;;;1.00;0.45;;;;;;;21.84;100.00;101570.31;10435421;28;20052;-81
2023/06/10 05:23:54;;;;;;;0.40;0.22;;;;;;;21.85;100.00;101569.44;10435258;28;20510;-81
2023/06/10 05:28:56;;;;;;;0.63;0.57;;;;;;;21.95;100.00;101572.84;10450049;28;20499;-80
2023/06/10 05:33:58;;;;;;;0.00;0.00;;;;;;;22.13;100.00;101574.38;10452798;28;20059;-81
2023/06/10 05:38:59;;;;;;;1.23;1.13;;;;;;;22.35;100.00;101574.13;10446861;28;20064;-81
2023/06/10 05:44:02;;;;;;;0.22;0.20;;;;;;;22.21;100.00;101579.53;10463046;28;20504;-80
2023/06/10 05:49:04;;;;;;;0.70;0.30;;;;;;;22.48;100.00;101583.59;10450516;28;20412;-80
2023/06/10 05:54:06;;;;;;;0.70;0.50;;;;;;;22.09;100.00;101583.16;10448017;28;20052;-81
2023/06/10 05:59:07;;;;;;;2.83;1.35;;;;;;;22.89;100.00;101583.06;10446995;28;20095;-80
2023/06/10 06:04:09;;;;;;;0.88;0.65;;;;;;;22.43;100.00;101592.41;10445550;28;20140;-80
2023/06/10 06:09:12;;;;;;;0.55;0.40;;;;;;;22.49;100.00;101580.09;10445912;28;20055;-81
2023/06/10 06:14:14;;;;;;;0.30;0.20;;;;;;;22.82;100.00;101577.84;10448370;28;20037;-80
2023/06/10 06:19:15;;;;;;;0.60;0.47;;;;;;;22.84;100.00;101576.97;10460157;28;20439;-79
2023/06/10 06:24:17;;;;;;;0.75;0.52;;;;;;;23.43;100.00;101574.34;10441994;28;20056;-80
2023/06/10 06:29:19;;;;;;;0.20;0.20;;;;;;;23.38;100.00;101570.94;10450847;28;20114;-80
2023/06/10 06:34:20;;;;;;;0.90;0.60;;;;;;;23.41;100.00;101577.00;10441623;28;20053;-80
2023/06/10 06:39:23;;;;;;;0.40;0.30;;;;;;;23.32;100.00;101586.78;10434583;28;20091;-80
2023/06/10 06:44:25;;;;;;;0.20;0.20;;;;;;;23.68;100.00;101584.44;10448990;28;20037;-80
2023/06/10 06:49:27;;;;;;;1.08;0.65;;;;;;;24.20;100.00;101585.22;10432216;28;20555;-80
2023/06/10 06:54:29;;;;;;;1.52;0.40;;;;;;;23.81;100.00;101595.56;10464067;28;20045;-81
2023/06/10 06:59:30;;;;;;;0.47;0.43;;;;;;;24.50;100.00;101588.94;10458552;28;20100;-80
2023/06/10 07:04:32;;;;;;;0.75;0.75;;;;;;;25.32;99.33;101591.50;10434684;28;20049;-81
2023/06/10 07:09:34;;;;;;;0.68;0.40;;;;;;;25.53;94.67;101595.41;10418872;28;20045;-80
2023/06/10 07:14:35;;;;;;;0.38;0.38;;;;;;;25.66;92.88;101596.81;10462584;28;20041;-82
2023/06/10 07:19:37;;;;;;;0.98;0.52;;;;;;;26.59;89.48;101594.22;10433476;28;20053;-82
2023/06/10 07:24:39;;;;;;;0.17;0.17;;;;;;;26.47;91.27;101593.72;10445158;28;20457;-80
2023/06/10 07:29:41;;;;;;;0.50;0.32;;;;;;;27.02;87.82;101599.09;10429626;28;20048;-81
2023/06/10 07:34:43;;;;;;;0.20;0.20;;;;;;;27.07;89.33;101602.44;10446812;28;20412;-81
2023/06/10 07:39:44;;;;;;;2.08;0.40;;;;;;;26.96;86.46;101607.22;10430831;28;20052;-81
2023/06/10 07:44:46;;;;;;;1.45;0.43;;;;;;;27.63;84.12;101603.28;10442820;28;20049;-81
2023/06/10 07:49:48;;;;;;;2.13;0.77;;;;;;;28.34;81.76;101611.34;10438112;28;20091;-80
2023/06/10 07:54:50;;;;;;;0.10;0.10;;;;;;;29.09;82.59;101604.88;10411931;28;20044;-81
2023/06/10 07:59:52;;;;;;;0.50;0.28;;;;;;;29.36;79.28;101594.09;10432475;28;20089;-80
2023/06/10 08:04:53;;;;;;;0.22;0.20;;;;;;;28.96;78.50;101598.38;10461928;28;20041;-79
2023/06/10 08:09:55;;;;;;;0.40;0.40;;;;;;;29.48;74.95;101599.78;10446463;28;20455;-80
2023/06/10 08:14:56;;;;;;;1.35;0.45;;;;;;;29.98;75.19;101594.06;10423305;28;20052;-79
2023/06/10 08:19:58;;;;;;;0.40;0.40;;;;;;;30.09;74.67;101596.25;10438001;28;20496;-80
2023/06/10 08:25:00;;;;;;;0.75;0.38;;;;;;;30.03;73.36;101596.53;10445687;28;20060;-81
2023/06/10 08:30:02;;;;;;;0.38;0.22;;;;;;;30.48;74.52;101597.13;10445582;28;20059;-80
2023/06/10 08:35:04;;;;;;;0.10;0.10;;;;;;;30.53;72.64;101590.69;10454052;28;20399;-80
2023/06/10 08:40:06;;;;;;;0.80;0.43;;;;;;;30.84;67.96;101583.03;10459619;28;20136;-80
2023/06/10 08:45:12;;;;;;;0.30;0.20;;;;;;;30.60;73.22;101593.06;10448979;28;20523;-77
2023/06/10 08:50:16;;;;;;;0.65;0.40;;;;;;;31.05;69.48;101596.19;10452104;28;20048;-78
2023/06/10 08:55:26;;;;;;;0.15;0.15;;;;;;;31.35;64.20;101587.63;10449838;28;20389;-75
2023/06/10 09:00:34;;;;;;;0.38;0.30;;;;;;;31.42;69.17;101592.59;10433918;28;20496;-76
2023/06/10 09:05:36;;;;;;;0.65;0.40;;;;;;;32.17;61.57;101602.88;10449987;28;20049;-77
2023/06/10 09:10:38;;;;;;;0.25;0.10;;;;;;;31.62;65.60;101593.34;10446885;28;20052;-78
2023/06/10 09:15:41;;;;;;;0.10;0.05;;;;;;;31.14;65.11;101595.78;10443254;28;20422;-77
2023/06/10 09:20:43;;;;;;;0.30;0.30;;;;;;;31.72;66.56;101586.63;10434591;28;20535;-78
2023/06/10 09:25:45;;;;;;;0.30;0.25;;;;;;;31.62;61.32;101580.88;10448965;28;20033;-78
2023/06/10 09:30:46;;;;;;;0.20;0.20;;;;;;;32.36;58.62;101580.53;10455408;28;20053;-78
2023/06/10 09:35:49;;;;;;;0.20;0.20;;;;;;;31.72;58.87;101591.06;10448587;28;20056;-76
2023/06/10 09:40:53;;;;;;;0.70;0.32;;;;;;;32.17;57.05;101581.53;10444029;28;20053;-78
2023/06/10 09:45:57;;;;;;;0.30;0.20;;;;;;;33.03;59.02;101574.97;10463291;28;20045;-76
2023/06/10 09:50:59;;;;;;;0.30;0.20;;;;;;;32.45;55.46;101577.38;10464843;28;20399;-78
2023/06/10 09:56:00;;;;;;;0.30;0.30;;;;;;;32.53;58.24;101577.78;10449828;28;20041;-78
2023/06/10 10:01:09;;;;;;;0.40;0.30;;;;;;;32.57;54.52;101574.03;10447803;28;20048;-77
2023/06/10 10:06:11;;;;;;;0.20;0.10;;;;;;;32.58;52.98;101582.88;10455887;28;20095;-79
2023/06/10 10:11:16;;;;;;;0.20;0.20;;;;;;;33.17;51.55;101583.06;10458178;28;20135;-77
2023/06/10 10:16:40;;;;;;;0.30;0.20;;;;;;;32.86;54.19;101574.19;10446749;28;20171;-76
2023/06/10 10:21:52;;;;;;;0.38;0.38;;;;;;;33.64;50.21;101564.25;10439199;28;20584;-77
2023/06/10 10:26:58;;;;;;;1.08;0.40;;;;;;;33.19;51.57;101575.81;10443038;28;20049;-78
2023/06/10 10:32:01;;;;;;;1.52;0.80;;;;;;;34.11;50.82;101571.16;10463386;28;20041;-78
2023/06/10 10:37:03;;;;;;;0.25;0.13;;;;;;;33.60;48.75;101570.75;10445187;28;20385;-77
2023/06/10 10:42:09;;;;;;;0.35;0.22;;;;;;;33.09;49.80;101574.66;10470030;28;20049;-76
2023/06/10 10:47:12;;;;;;;0.15;0.15;;;;;;;33.90;50.81;101559.16;10453608;28;20099;-76
2023/06/10 10:52:14;;;;;;;0.20;0.13;;;;;;;32.84;45.21;101559.22;10444831;28;20049;-76
2023/06/10 10:57:23;;;;;;;0.10;0.10;;;;;;;34.04;45.83;101551.13;10453343;28;20040;-78
2023/06/10 11:02:35;;;;;;;0.50;0.40;;;;;;;33.32;45.19;101554.59;10453233;28;20452;-78
2023/06/10 11:07:37;;;;;;;0.20;0.10;;;;;;;33.79;49.45;101551.78;10462207;28;20055;-77
2023/06/10 11:12:42;;;;;;;0.10;0.10;;;;;;;33.36;47.00;101552.59;10446213;28;20044;-77
2023/06/10 11:18:10;;;;;;;0.20;0.20;;;;;;;34.22;46.25;101548.22;10435789;28;20077;-78
2023/06/10 11:23:24;;;;;;;0.10;0.10;;;;;;;34.38;44.91;101529.41;10470044;28;20041;-76
2023/06/10 11:28:28;;;;;;;0.52;0.38;;;;;;;34.28;46.59;101531.78;10445544;28;20296;-77
2023/06/10 11:33:30;;;;;;;0.20;0.20;;;;;;;33.63;45.43;101538.50;10451512;28;20052;-77
2023/06/10 11:38:32;;;;;;;2.95;0.45;;;;;;;33.10;43.86;101528.28;10447438;28;20044;-78
2023/06/10 11:43:34;;;;;;;0.30;0.25;;;;;;;33.95;48.68;101522.28;10436399;28;20485;-78
2023/06/10 11:48:35;;;;;;;0.20;0.20;;;;;;;34.15;45.14;101527.22;10453642;28;20052;-77
2023/06/10 11:53:37;;;;;;;0.43;0.35;;;;;;;33.26;45.08;101530.91;10451535;28;20074;-78
2023/06/10 11:58:45;;;;;;;0.10;0.10;;;;;;;34.21;43.98;101525.13;10426806;28;20045;-77
2023/06/10 12:03:46;;;;;;;0.30;0.28;;;;;;;33.18;40.55;101526.03;10458336;28;20070;-77
2023/06/10 12:08:48;;;;;;;0.60;0.50;;;;;;;34.25;45.97;101522.16;10455571;28;20480;-78
2023/06/10 12:13:50;;;;;;;0.73;0.50;;;;;;;33.84;45.02;101526.53;10456680;28;20519;-76
2023/06/10 12:19:02;;;;;;;0.30;0.30;;;;;;;33.58;42.77;101521.91;10451753;28;20052;-77
2023/06/10 12:24:09;;;;;;;0.20;0.10;;;;;;;33.29;46.75;101516.50;10471215;28;20049;-79
2023/06/10 12:29:14;;;;;;;0.20;0.20;;;;;;;33.00;44.27;101511.13;10426037;28;20045;-78
2023/06/10 12:34:16;;;;;;;0.20;0.20;;;;;;;33.43;45.50;101500.53;10432816;28;20052;-78
2023/06/10 12:39:18;;;;;;;0.57;0.30;;;;;;;33.30;44.34;101491.53;10457703;28;20045;-78
2023/06/10 12:44:29;;;;;;;1.15;0.70;;;;;;;33.73;45.85;101494.22;10449378;28;20488;-78
2023/06/10 12:49:30;;;;;;;0.30;0.30;;;;;;;33.92;44.92;101483.25;10450041;28;20051;-79
2023/06/10 12:54:32;;;;;;;0.10;0.10;;;;;;;33.07;42.20;101491.13;10450927;28;20051;-77
2023/06/10 12:59:34;;;;;;;0.03;0.03;;;;;;;33.69;45.49;101488.22;10448807;28;20515;-77
2023/06/10 13:04:36;;;;;;;1.20;0.63;;;;;;;33.19;42.18;101490.38;10469448;28;20056;-79
2023/06/10 13:09:37;;;;;;;0.50;0.40;;;;;;;34.26;44.76;101482.88;10457558;28;20055;-77
2023/06/10 13:14:39;;;;;;;0.73;0.40;;;;;;;33.91;44.91;101475.34;10470367;28;20052;-77
2023/06/10 13:19:41;;;;;;;0.45;0.20;;;;;;;33.29;46.47;101484.47;10457679;28;20441;-78
2023/06/10 13:24:43;;;;;;;1.65;0.38;;;;;;;33.86;41.57;101472.97;10461632;28;20037;-77
2023/06/10 13:29:45;;;;;;;0.47;0.30;;;;;;;33.20;44.66;101478.75;10448224;28;20045;-78
2023/06/10 13:34:47;;;;;;;0.10;0.10;;;;;;;33.76;44.13;101467.34;10442021;28;20048;-78
2023/06/10 13:39:50;;;;;;;0.10;0.10;;;;;;;33.34;45.66;101463.72;10454662;28;20049;-78
2023/06/10 13:44:52;;;;;;;1.02;0.38;;;;;;;33.30;43.27;101462.16;10442090;28;20157;-78
2023/06/10 13:49:53;;;;;;;0.63;0.43;;;;;;;34.12;43.99;101455.25;10472230;28;20041;-77
2023/06/10 13:54:55;;;;;;;3.45;0.90;;;;;;;33.28;41.90;101456.94;10473074;28;20052;-77
2023/06/10 13:59:56;;;;;;;0.08;0.08;;;;;;;33.51;45.45;101447.50;10460382;28;20044;-78
2023/06/10 14:04:58;;;;;;;0.38;0.20;;;;;;;33.89;44.99;101446.03;10447554;28;20131;-77
2023/06/10 14:10:00;;;;;;;1.00;0.30;;;;;;;33.29;42.25;101447.09;10437088;28;20060;-77
2023/06/10 14:15:02;;;;;;;0.52;0.30;;;;;;;33.88;42.92;101443.47;10446187;28;20476;-77
2023/06/10 14:20:05;;;;;;;0.68;0.40;;;;;;;32.93;40.84;101445.72;10451062;28;20051;-78
2023/06/10 14:25:07;;;;;;;1.05;0.28;;;;;;;33.14;39.79;101449.75;10455688;28;20049;-77
2023/06/10 14:30:10;;;;;;;0.28;0.28;;;;;;;33.09;41.92;101450.97;10456657;28;20053;-77
2023/06/10 14:35:12;;;;;;;0.20;0.20;;;;;;;33.80;45.24;101442.13;10450723;28;20049;-77
2023/06/10 14:40:13;;;;;;;0.40;0.30;;;;;;;32.72;39.28;101432.72;10448368;28;20059;-77
2023/06/10 14:45:15;;;;;;;0.25;0.13;;;;;;;32.92;44.04;101428.84;10439781;28;20510;-77
2023/06/10 14:50:20;;;;;;;0.35;0.32;;;;;;;33.05;45.09;101428.97;10465209;28;20405;-77
2023/06/10 14:55:25;;;;;;;0.35;0.30;;;;;;;33.19;43.97;101434.31;10440318;28;20431;-78
2023/06/10 15:00:26;;;;;;;1.20;0.80;;;;;;;32.82;43.13;101428.53;10459373;28;20041;-78
2023/06/10 15:05:28;;;;;;;0.50;0.50;;;;;;;33.18;43.49;101419.25;10456556;28;20047;-77
2023/06/10 15:10:30;;;;;;;0.15;0.13;;;;;;;33.15;44.14;101415.91;10442795;28;20048;-78
2023/06/10 15:15:31;;;;;;;0.93;0.57;;;;;;;32.35;41.07;101421.53;10455599;28;20041;-77
2023/06/10 15:20:33;;;;;;;0.22;0.22;;;;;;;33.59;44.74;101416.78;10454916;28;20056;-77
2023/06/10 15:25:35;;;;;;;0.47;0.47;;;;;;;33.21;46.03;101408.38;10443382;28;20049;-78
2023/06/10 15:30:37;;;;;;;1.00;0.52;;;;;;;32.89;44.55;101405.88;10452660;28;20530;-77
2023/06/10 15:35:39;;;;;;;0.85;0.63;;;;;;;32.90;45.16;101404.94;10462787;28;20124;-76
2023/06/10 15:40:41;;;;;;;1.25;0.90;;;;;;;32.82;43.34;101401.88;10448180;28;20049;-77
2023/06/10 15:45:43;;;;;;;1.27;0.65;;;;;;;33.02;46.03;101405.16;10453990;28;20388;-78
2023/06/10 15:50:45;;;;;;;0.20;0.20;;;;;;;33.00;45.16;101399.88;10437097;28;20057;-77
2023/06/10 15:55:46;;;;;;;1.17;0.47;;;;;;;33.36;46.31;101397.72;10476250;28;20403;-79
2023/06/10 16:00:48;;;;;;;0.38;0.38;;;;;;;33.01;43.86;101398.94;10439950;28;20472;-78
2023/06/10 16:05:50;;;;;;;0.20;0.20;;;;;;;33.13;47.01;101399.16;10466269;28;20037;-78
2023/06/10 16:10:51;;;;;;;0.35;0.20;;;;;;;33.08;43.53;101386.09;10456198;28;20055;-78
2023/06/10 16:15:53;;;;;;;0.35;0.32;;;;;;;32.33;41.64;101378.09;10453273;28;20051;-78
2023/06/10 16:20:55;;;;;;;0.30;0.30;;;;;;;32.78;43.56;101389.69;10452940;28;20053;-78
2023/06/10 16:25:57;;;;;;;1.25;0.45;;;;;;;33.01;43.43;101392.75;10469517;28;20041;-79
2023/06/10 16:30:58;;;;;;;0.22;0.22;;;;;;;32.71;43.93;101389.16;10446293;28;20055;-78
2023/06/10 16:36:00;;;;;;;0.52;0.50;;;;;;;32.83;43.92;101382.25;10426579;28;20037;-77
2023/06/10 16:41:02;;;;;;;0.80;0.57;;;;;;;32.57;43.42;101390.00;10442810;28;20045;-77
2023/06/10 16:46:03;;;;;;;0.70;0.52;;;;;;;33.19;44.91;101388.94;10461836;28;20053;-78
2023/06/10 16:51:05;;;;;;;0.38;0.10;;;;;;;33.02;49.38;101397.13;10458338;28;20137;-78
2023/06/10 16:56:06;;;;;;;0.73;0.43;;;;;;;32.57;47.50;101398.00;10454176;28;20041;-77
2023/06/10 17:01:08;;;;;;;0.05;0.05;;;;;;;32.51;46.73;101397.50;10436637;28;20056;-77
2023/06/10 17:06:10;;;;;;;0.68;0.45;;;;;;;32.37;46.97;101395.63;10456035;28;20044;-77
2023/06/10 17:11:12;;;;;;;0.50;0.32;;;;;;;32.10;43.47;101401.59;10469884;28;20411;-78
2023/06/10 17:16:13;;;;;;;0.60;0.45;;;;;;;32.66;49.78;101396.56;10452320;28;20492;-79
2023/06/10 17:21:15;;;;;;;1.05;0.60;;;;;;;33.03;47.18;101396.16;10453698;28;20507;-78
2023/06/10 17:26:17;;;;;;;0.32;0.28;;;;;;;32.38;44.87;101408.00;10484323;28;20045;-78
2023/06/10 17:31:19;;;;;;;0.20;0.20;;;;;;;33.02;45.75;101402.47;10438893;28;20049;-79
2023/06/10 17:36:21;;;;;;;0.68;0.47;;;;;;;32.82;47.26;101404.53;10441459;28;20045;-78
2023/06/10 17:41:22;;;;;;;0.20;0.10;;;;;;;32.19;45.72;101403.75;10473898;28;20140;-78
2023/06/10 17:46:24;;;;;;;0.73;0.50;;;;;;;32.34;46.59;101395.81;10467077;28;20091;-80
2023/06/10 17:51:25;;;;;;;0.15;0.08;;;;;;;32.84;47.77;101405.31;10458980;28;20105;-78
2023/06/10 17:56:27;;;;;;;0.20;0.20;;;;;;;32.16;47.33;101414.56;10452901;28;20492;-79
2023/06/10 18:01:29;;;;;;;0.22;0.20;;;;;;;31.66;48.26;101419.13;10459061;28;20056;-79
2023/06/10 18:06:33;;;;;;;0.20;0.20;;;;;;;31.69;48.06;101416.31;10479474;28;20140;-78
2023/06/10 18:11:35;;;;;;;0.35;0.10;;;;;;;31.43;48.02;101423.03;10442113;28;20439;-79
2023/06/10 18:16:37;;;;;;;0.10;0.08;;;;;;;30.92;49.58;101421.22;10476541;28;20048;-78
2023/06/10 18:21:39;;;;;;;0.20;0.15;;;;;;;31.16;50.52;101420.94;10457400;28;20048;-79
2023/06/10 18:26:40;;;;;;;0.30;0.15;;;;;;;31.31;52.19;101422.75;10447247;28;20041;-78
2023/06/10 18:31:42;;;;;;;1.90;0.40;;;;;;;30.80;54.97;101420.06;10453814;28;20041;-79
2023/06/10 18:36:44;;;;;;;0.05;0.05;;;;;;;30.85;53.74;101425.16;10466131;28;20053;-78
2023/06/10 18:41:46;;;;;;;0.20;0.20;;;;;;;30.42;54.44;101432.63;10449563;28;20076;-78
2023/06/10 18:46:47;;;;;;;0.28;0.28;;;;;;;30.56;53.88;101440.81;10456614;28;20124;-78
2023/06/10 18:51:49;;;;;;;0.47;0.28;;;;;;;30.22;52.95;101439.75;10453950;28;20143;-78
2023/06/10 18:56:51;;;;;;;0.25;0.25;;;;;;;30.43;54.56;101439.63;10466462;28;20045;-78
2023/06/10 19:01:53;;;;;;;0.80;0.30;;;;;;;30.52;54.24;101452.50;10445440;28;20056;-78
2023/06/10 19:06:55;;;;;;;0.15;0.15;;;;;;;30.41;55.39;101452.16;10445622;28;20040;-79
2023/06/10 19:11:56;;;;;;;0.22;0.22;;;;;;;29.71;57.80;101463.41;10472585;28;20416;-78
2023/06/10 19:16:58;;;;;;;0.00;0.00;;;;;;;29.74;60.53;101457.91;10456761;28;20373;-78
2023/06/10 19:22:00;;;;;;;0.30;0.20;;;;;;;29.85;57.94;101465.38;10454779;28;20415;-79
2023/06/10 19:27:01;;;;;;;0.00;0.00;;;;;;;29.55;60.93;101468.53;10444288;28;20052;-78
2023/06/10 19:32:05;;;;;;;0.00;0.00;;;;;;;29.35;59.61;101477.38;10455068;28;20053;-78
2023/06/10 19:37:06;;;;;;;0.00;0.00;;;;;;;28.66;63.06;101479.34;10458224;28;20124;-79
2023/06/10 19:42:11;;;;;;;0.03;0.00;;;;;;;28.56;61.18;101480.66;10442192;28;20053;-79
2023/06/10 19:47:16;;;;;;;0.00;0.00;;;;;;;28.43;63.39;101486.44;10454851;28;20052;-79
2023/06/10 19:52:17;;;;;;;0.00;0.00;;;;;;;28.44;63.06;101490.81;10437786;28;20053;-79
2023/06/10 19:57:19;;;;;;;0.55;0.30;;;;;;;28.32;64.89;101486.03;10441324;28;20033;-78
2023/06/10 20:02:21;;;;;;;0.15;0.15;;;;;;;27.65;71.58;101500.88;10440526;28;20052;-79
2023/06/10 20:07:22;;;;;;;0.10;0.10;;;;;;;27.69;69.96;101502.47;10454137;28;20043;-79
2023/06/10 20:19:18;;;;;;;0.40;0.20;;;;;;;27.54;73.63;101512.72;10453785;28;20041;-79
2023/06/10 20:24:19;;;;;;;0.30;0.20;;;;;;;27.48;72.74;101525.28;10438814;28;20076;-79
2023/06/10 20:29:21;;;;;;;0.43;0.15;;;;;;;27.40;76.08;101525.53;10445425;28;20033;-78
2023/06/10 20:34:23;;;;;;;0.15;0.15;;;;;;;26.94;77.21;101530.63;10450647;28;20473;-79
2023/06/10 20:39:25;;;;;;;0.00;0.00;;;;;;;26.81;79.11;101538.06;10442598;28;20041;-79
2023/06/10 20:44:27;;;;;;;0.30;0.20;;;;;;;26.64;77.66;101535.06;10436279;28;20049;-79
2023/06/10 20:49:28;;;;;;;0.65;0.20;;;;;;;26.21;84.49;101538.13;10448791;28;20049;-79
2023/06/10 20:54:30;;;;;;;0.13;0.13;;;;;;;25.55;87.58;101542.59;10449932;28;20045;-79
2023/06/10 20:59:31;;;;;;;0.10;0.10;;;;;;;25.53;86.67;101534.72;10455076;28;20040;-79
2023/06/10 21:04:33;;;;;;;0.20;0.13;;;;;;;25.80;88.61;101537.53;10440887;28;20060;-79
2023/06/10 21:09:35;;;;;;;0.28;0.28;;;;;;;25.80;85.46;101534.88;10454738;28;20047;-79
2023/06/10 21:14:37;;;;;;;0.30;0.20;;;;;;;25.66;85.72;101544.03;10440392;28;20057;-79
2023/06/10 21:19:38;;;;;;;0.43;0.43;;;;;;;25.30;85.88;101546.69;10439341;28;20091;-79
2023/06/10 21:24:40;;;;;;;1.27;0.43;;;;;;;25.20;86.83;101547.88;10461278;28;20041;-79
2023/06/10 21:29:42;;;;;;;0.50;0.35;;;;;;;24.97;86.42;101545.78;10461939;28;20064;-79
2023/06/10 21:34:45;;;;;;;0.08;0.08;;;;;;;25.12;86.17;101544.56;10453270;28;20053;-79
2023/06/10 21:39:46;;;;;;;0.43;0.10;;;;;;;25.39;84.19;101545.66;10438988;28;20068;-79
2023/06/10 21:44:48;;;;;;;0.40;0.40;;;;;;;25.27;84.60;101549.44;10444634;28;20043;-79
2023/06/10 21:49:49;;;;;;;0.50;0.40;;;;;;;25.45;83.90;101549.88;10444102;28;20444;-79
2023/06/10 21:54:51;;;;;;;0.43;0.30;;;;;;;25.31;84.53;101553.72;10454630;28;20484;-79
2023/06/10 21:59:53;;;;;;;0.20;0.10;;;;;;;25.23;85.24;101546.91;10438121;28;20432;-79
2023/06/10 22:04:54;;;;;;;0.20;0.20;;;;;;;24.86;87.29;101553.94;10453835;28;20373;-79
2023/06/10 22:09:56;;;;;;;0.52;0.47;;;;;;;24.83;87.93;101548.75;10452763;28;20120;-79
2023/06/10 22:15:03;;;;;;;0.20;0.20;;;;;;;24.91;87.96;101545.94;10470252;28;20052;-79
2023/06/10 22:20:06;;;;;;;0.60;0.45;;;;;;;24.78;88.97;101555.88;10437698;28;20041;-79
2023/06/10 22:25:08;;;;;;;0.70;0.32;;;;;;;24.66;90.69;101549.09;10452073;28;20496;-79
2023/06/10 22:30:11;;;;;;;0.65;0.60;;;;;;;24.36;93.07;101552.41;10450163;28;20148;-79
2023/06/10 22:35:13;;;;;;;0.35;0.20;;;;;;;24.95;89.39;101551.09;10433506;28;20140;-79
2023/06/10 22:40:15;;;;;;;0.20;0.17;;;;;;;24.33;94.16;101547.19;10451939;28;20064;-80
2023/06/10 22:45:16;;;;;;;0.20;0.20;;;;;;;24.28;94.56;101543.78;10445896;28;20053;-79
2023/06/10 22:50:18;;;;;;;0.90;0.30;;;;;;;24.21;94.82;101547.47;10456431;28;20055;-79
2023/06/10 22:55:19;;;;;;;0.55;0.30;;;;;;;24.15;95.51;101547.59;10472403;28;20542;-79
2023/06/10 23:00:21;;;;;;;0.40;0.20;;;;;;;23.79;99.84;101555.28;10434539;28;20049;-79
2023/06/10 23:05:23;;;;;;;0.10;0.10;;;;;;;23.85;100.00;101557.78;10445244;28;20095;-80
2023/06/10 23:10:24;;;;;;;0.05;0.05;;;;;;;24.20;98.77;101543.09;10434948;28;20041;-79
2023/06/10 23:15:26;;;;;;;0.00;0.00;;;;;;;23.91;99.93;101550.63;10451665;28;20049;-79